sensor_id;sensor_type;location;lat;lon;timestamp;temperature;humidity
42885;DHT22;28534;48.100;11.584;2024-02-21T00:00:32;22.10;54.40
42885;DHT22;28534;48.100;11.584;2024-02-21T00:01:32;22.10;54.40
42885;DHT22;28534;48.100;11.584;2024-02-21T00:02:34;22.10;54.30
42885;DHT22;28534;48.100;11.584;2024-02-21T00:03:34;22.10;54.40
42885;DHT22;28534;48.100;11.584;2024-02-21T00:04:35;22.20;54.40
42885;DHT22;28534;48.100;11.584;2024-02-21T00:05:37;22.10;54.40
42885;DHT22;28534;48.100;11.584;2024-02-21T00:06:38;22.10;54.40
42885;DHT22;28534;48.100;11.584;2024-02-21T00:07:39;22.10;54.50
42885;DHT22;28534;48.100;11.584;2024-02-21T00:08:40;22.10;54.50
42885;DHT22;28534;48.100;11.584;2024-02-21T00:09:41;22.10;54.50
42885;DHT22;28534;48.100;11.584;2024-02-21T00:10:43;22.10;54.50
42885;DHT22;28534;48.100;11.584;2024-02-21T00:11:45;22.00;54.50
42885;DHT22;28534;48.100;11.584;2024-02-21T00:12:45;22.10;54.50
42885;DHT22;28534;48.100;11.584;2024-02-21T00:13:47;22.10;54.50
42885;DHT22;28534;48.100;11.584;2024-02-21T00:14:47;22.00;54.50
42885;DHT22;28534;48.100;11.584;2024-02-21T00:15:50;22.10;54.60
42885;DHT22;28534;48.100;11.584;2024-02-21T00:16:51;22.20;54.60
42885;DHT22;28534;48.100;11.584;2024-02-21T00:17:52;22.10;54.60
42885;DHT22;28534;48.100;11.584;2024-02-21T00:18:53;22.10;54.60
42885;DHT22;28534;48.100;11.584;2024-02-21T00:19:55;22.10;54.60
42885;DHT22;28534;48.100;11.584;2024-02-21T00:20:56;22.00;54.60
42885;DHT22;28534;48.100;11.584;2024-02-21T00:21:57;22.00;54.60
42885;DHT22;28534;48.100;11.584;2024-02-21T00:22:58;22.10;54.70
42885;DHT22;28534;48.100;11.584;2024-02-21T00:23:59;22.10;54.70
42885;DHT22;28534;48.100;11.584;2024-02-21T00:25:00;22.10;54.60
42885;DHT22;28534;48.100;11.584;2024-02-21T00:26:01;22.00;54.60
42885;DHT22;28534;48.100;11.584;2024-02-21T00:27:02;22.10;54.70
42885;DHT22;28534;48.100;11.584;2024-02-21T00:28:04;22.10;54.70
42885;DHT22;28534;48.100;11.584;2024-02-21T00:29:06;22.10;54.60
42885;DHT22;28534;48.100;11.584;2024-02-21T00:30:08;22.10;54.70
42885;DHT22;28534;48.100;11.584;2024-02-21T00:31:10;22.10;54.70
42885;DHT22;28534;48.100;11.584;2024-02-21T00:32:11;21.70;54.50
42885;DHT22;28534;48.100;11.584;2024-02-21T00:33:13;22.10;54.70
42885;DHT22;28534;48.100;11.584;2024-02-21T00:34:14;22.10;54.70
42885;DHT22;28534;48.100;11.584;2024-02-21T00:35:15;22.10;54.70
42885;DHT22;28534;48.100;11.584;2024-02-21T00:36:16;22.10;54.70
42885;DHT22;28534;48.100;11.584;2024-02-21T00:37:17;22.00;54.70
42885;DHT22;28534;48.100;11.584;2024-02-21T00:38:19;22.10;54.70
42885;DHT22;28534;48.100;11.584;2024-02-21T00:39:19;22.10;54.80
42885;DHT22;28534;48.100;11.584;2024-02-21T00:40:21;22.10;54.80
42885;DHT22;28534;48.100;11.584;2024-02-21T00:41:22;22.10;54.80
42885;DHT22;28534;48.100;11.584;2024-02-21T00:42:24;22.00;54.70
42885;DHT22;28534;48.100;11.584;2024-02-21T00:43:24;22.00;54.80
42885;DHT22;28534;48.100;11.584;2024-02-21T00:44:26;22.00;54.80
42885;DHT22;28534;48.100;11.584;2024-02-21T00:45:26;22.00;54.80
42885;DHT22;28534;48.100;11.584;2024-02-21T00:46:29;22.00;54.80
42885;DHT22;28534;48.100;11.584;2024-02-21T00:47:30;22.00;54.80
42885;DHT22;28534;48.100;11.584;2024-02-21T00:48:31;22.10;54.80
42885;DHT22;28534;48.100;11.584;2024-02-21T00:49:32;22.10;54.80
42885;DHT22;28534;48.100;11.584;2024-02-21T00:50:34;22.00;54.90
42885;DHT22;28534;48.100;11.584;2024-02-21T00:51:34;22.00;54.80
42885;DHT22;28534;48.100;11.584;2024-02-21T00:52:36;22.00;54.80
42885;DHT22;28534;48.100;11.584;2024-02-21T00:53:36;22.10;54.90
42885;DHT22;28534;48.100;11.584;2024-02-21T00:54:39;22.00;54.90
42885;DHT22;28534;48.100;11.584;2024-02-21T00:55:39;22.10;55.00
42885;DHT22;28534;48.100;11.584;2024-02-21T00:56:41;22.00;54.90
42885;DHT22;28534;48.100;11.584;2024-02-21T00:57:42;22.00;54.90
42885;DHT22;28534;48.100;11.584;2024-02-21T00:58:43;22.00;54.90
42885;DHT22;28534;48.100;11.584;2024-02-21T00:59:44;22.00;55.00
42885;DHT22;28534;48.100;11.584;2024-02-21T01:00:45;22.10;55.00
42885;DHT22;28534;48.100;11.584;2024-02-21T01:01:47;22.00;55.00
42885;DHT22;28534;48.100;11.584;2024-02-21T01:02:49;22.00;55.00
42885;DHT22;28534;48.100;11.584;2024-02-21T01:03:49;22.00;55.00
42885;DHT22;28534;48.100;11.584;2024-02-21T01:04:51;22.00;55.00
42885;DHT22;28534;48.100;11.584;2024-02-21T01:05:52;22.00;55.00
42885;DHT22;28534;48.100;11.584;2024-02-21T01:06:53;22.00;55.10
42885;DHT22;28534;48.100;11.584;2024-02-21T01:07:54;22.00;55.00
42885;DHT22;28534;48.100;11.584;2024-02-21T01:08:55;22.10;55.10
42885;DHT22;28534;48.100;11.584;2024-02-21T01:09:56;22.00;55.00
42885;DHT22;28534;48.100;11.584;2024-02-21T01:10:57;22.00;55.00
42885;DHT22;28534;48.100;11.584;2024-02-21T01:11:58;22.00;55.00
42885;DHT22;28534;48.100;11.584;2024-02-21T01:12:59;22.00;55.00
42885;DHT22;28534;48.100;11.584;2024-02-21T01:14:00;22.00;55.10
42885;DHT22;28534;48.100;11.584;2024-02-21T01:15:01;22.00;55.00
42885;DHT22;28534;48.100;11.584;2024-02-21T01:16:03;22.00;55.10
42885;DHT22;28534;48.100;11.584;2024-02-21T01:17:05;22.00;55.10
42885;DHT22;28534;48.100;11.584;2024-02-21T01:18:07;22.00;55.10
42885;DHT22;28534;48.100;11.584;2024-02-21T01:19:08;22.00;55.10
42885;DHT22;28534;48.100;11.584;2024-02-21T01:20:09;22.00;55.10
42885;DHT22;28534;48.100;11.584;2024-02-21T01:21:10;22.00;55.10
42885;DHT22;28534;48.100;11.584;2024-02-21T01:22:12;22.10;55.20
42885;DHT22;28534;48.100;11.584;2024-02-21T01:23:12;22.00;55.10
42885;DHT22;28534;48.100;11.584;2024-02-21T01:24:14;22.10;55.10
42885;DHT22;28534;48.100;11.584;2024-02-21T01:25:15;22.00;55.10
42885;DHT22;28534;48.100;11.584;2024-02-21T01:26:17;22.00;55.10
42885;DHT22;28534;48.100;11.584;2024-02-21T01:27:18;22.00;55.10
42885;DHT22;28534;48.100;11.584;2024-02-21T01:28:21;22.00;55.10
42885;DHT22;28534;48.100;11.584;2024-02-21T01:29:22;22.00;55.10
42885;DHT22;28534;48.100;11.584;2024-02-21T01:30:23;22.00;55.20
42885;DHT22;28534;48.100;11.584;2024-02-21T01:31:24;22.10;55.30
42885;DHT22;28534;48.100;11.584;2024-02-21T01:32:27;21.90;55.10
42885;DHT22;28534;48.100;11.584;2024-02-21T01:33:27;22.00;55.20
42885;DHT22;28534;48.100;11.584;2024-02-21T01:34:34;22.00;55.20
42885;DHT22;28534;48.100;11.584;2024-02-21T01:35:35;21.90;55.10
42885;DHT22;28534;48.100;11.584;2024-02-21T01:36:37;21.90;55.20
42885;DHT22;28534;48.100;11.584;2024-02-21T01:37:37;22.00;55.30
42885;DHT22;28534;48.100;11.584;2024-02-21T01:38:39;22.00;55.30
42885;DHT22;28534;48.100;11.584;2024-02-21T01:39:40;22.00;55.20
42885;DHT22;28534;48.100;11.584;2024-02-21T01:40:41;22.00;55.20
42885;DHT22;28534;48.100;11.584;2024-02-21T01:41:42;22.00;55.20
42885;DHT22;28534;48.100;11.584;2024-02-21T01:42:43;22.00;55.30
42885;DHT22;28534;48.100;11.584;2024-02-21T01:43:44;22.00;55.30
42885;DHT22;28534;48.100;11.584;2024-02-21T01:44:46;21.90;55.20
42885;DHT22;28534;48.100;11.584;2024-02-21T01:45:47;22.00;55.30
42885;DHT22;28534;48.100;11.584;2024-02-21T01:46:50;21.90;55.20
42885;DHT22;28534;48.100;11.584;2024-02-21T01:47:53;22.00;55.20
42885;DHT22;28534;48.100;11.584;2024-02-21T01:48:55;21.90;55.20
42885;DHT22;28534;48.100;11.584;2024-02-21T01:49:56;21.90;55.20
42885;DHT22;28534;48.100;11.584;2024-02-21T01:50:57;22.00;55.30
42885;DHT22;28534;48.100;11.584;2024-02-21T01:51:58;22.00;55.30
42885;DHT22;28534;48.100;11.584;2024-02-21T01:52:59;22.00;55.30
42885;DHT22;28534;48.100;11.584;2024-02-21T01:54:00;22.10;55.30
42885;DHT22;28534;48.100;11.584;2024-02-21T01:55:01;21.90;55.20
42885;DHT22;28534;48.100;11.584;2024-02-21T01:56:03;21.90;55.30
42885;DHT22;28534;48.100;11.584;2024-02-21T01:57:05;22.00;55.30
42885;DHT22;28534;48.100;11.584;2024-02-21T01:58:07;21.90;55.20
42885;DHT22;28534;48.100;11.584;2024-02-21T01:59:08;21.90;55.20
42885;DHT22;28534;48.100;11.584;2024-02-21T02:00:10;22.00;55.30
42885;DHT22;28534;48.100;11.584;2024-02-21T02:01:13;22.00;55.30
42885;DHT22;28534;48.100;11.584;2024-02-21T02:02:15;21.90;55.30
42885;DHT22;28534;48.100;11.584;2024-02-21T02:03:18;22.00;55.40
42885;DHT22;28534;48.100;11.584;2024-02-21T02:04:20;21.90;55.40
42885;DHT22;28534;48.100;11.584;2024-02-21T02:05:20;22.10;55.40
42885;DHT22;28534;48.100;11.584;2024-02-21T02:06:22;21.90;55.40
42885;DHT22;28534;48.100;11.584;2024-02-21T02:07:23;20.60;54.70
42885;DHT22;28534;48.100;11.584;2024-02-21T02:08:24;22.00;55.40
42885;DHT22;28534;48.100;11.584;2024-02-21T02:09:25;21.90;55.30
42885;DHT22;28534;48.100;11.584;2024-02-21T02:10:26;22.00;55.40
42885;DHT22;28534;48.100;11.584;2024-02-21T02:11:27;22.00;55.30
42885;DHT22;28534;48.100;11.584;2024-02-21T02:12:29;22.00;55.40
42885;DHT22;28534;48.100;11.584;2024-02-21T02:13:29;22.00;55.40
42885;DHT22;28534;48.100;11.584;2024-02-21T02:14:31;21.90;55.40
42885;DHT22;28534;48.100;11.584;2024-02-21T02:15:40;21.90;55.40
42885;DHT22;28534;48.100;11.584;2024-02-21T02:16:41;22.00;55.40
42885;DHT22;28534;48.100;11.584;2024-02-21T02:17:42;22.10;55.40
42885;DHT22;28534;48.100;11.584;2024-02-21T02:18:45;22.10;55.50
42885;DHT22;28534;48.100;11.584;2024-02-21T02:19:46;22.10;55.50
42885;DHT22;28534;48.100;11.584;2024-02-21T02:20:47;22.00;55.40
42885;DHT22;28534;48.100;11.584;2024-02-21T02:21:49;21.90;55.40
42885;DHT22;28534;48.100;11.584;2024-02-21T02:22:53;21.90;55.40
42885;DHT22;28534;48.100;11.584;2024-02-21T02:23:56;22.00;55.40
42885;DHT22;28534;48.100;11.584;2024-02-21T02:24:57;21.90;55.40
42885;DHT22;28534;48.100;11.584;2024-02-21T02:25:58;22.00;55.50
42885;DHT22;28534;48.100;11.584;2024-02-21T02:27:01;22.00;55.40
42885;DHT22;28534;48.100;11.584;2024-02-21T02:28:02;22.00;55.40
42885;DHT22;28534;48.100;11.584;2024-02-21T02:29:04;21.90;55.40
42885;DHT22;28534;48.100;11.584;2024-02-21T02:30:05;21.90;55.40
42885;DHT22;28534;48.100;11.584;2024-02-21T02:31:07;21.90;55.40
42885;DHT22;28534;48.100;11.584;2024-02-21T02:32:07;21.90;55.40
42885;DHT22;28534;48.100;11.584;2024-02-21T02:33:09;21.90;55.40
42885;DHT22;28534;48.100;11.584;2024-02-21T02:34:10;22.00;55.50
42885;DHT22;28534;48.100;11.584;2024-02-21T02:35:11;22.10;55.50
42885;DHT22;28534;48.100;11.584;2024-02-21T02:36:12;22.00;55.40
42885;DHT22;28534;48.100;11.584;2024-02-21T02:37:14;21.90;55.40
42885;DHT22;28534;48.100;11.584;2024-02-21T02:38:14;22.00;55.40
42885;DHT22;28534;48.100;11.584;2024-02-21T02:39:17;21.90;55.30
42885;DHT22;28534;48.100;11.584;2024-02-21T02:40:18;21.90;55.40
42885;DHT22;28534;48.100;11.584;2024-02-21T02:41:19;22.00;55.40
42885;DHT22;28534;48.100;11.584;2024-02-21T02:42:20;22.00;55.40
42885;DHT22;28534;48.100;11.584;2024-02-21T02:43:21;22.00;55.40
42885;DHT22;28534;48.100;11.584;2024-02-21T02:44:22;21.90;55.40
42885;DHT22;28534;48.100;11.584;2024-02-21T02:45:23;22.00;55.40
42885;DHT22;28534;48.100;11.584;2024-02-21T02:46:24;21.90;55.30
42885;DHT22;28534;48.100;11.584;2024-02-21T02:47:25;22.10;55.50
42885;DHT22;28534;48.100;11.584;2024-02-21T02:48:26;21.90;55.40
42885;DHT22;28534;48.100;11.584;2024-02-21T02:49:27;21.90;55.40
42885;DHT22;28534;48.100;11.584;2024-02-21T02:50:28;22.10;55.50
42885;DHT22;28534;48.100;11.584;2024-02-21T02:51:29;21.90;55.40
42885;DHT22;28534;48.100;11.584;2024-02-21T02:52:30;21.90;55.40
42885;DHT22;28534;48.100;11.584;2024-02-21T02:53:32;22.00;55.50
42885;DHT22;28534;48.100;11.584;2024-02-21T02:54:34;21.90;55.40
42885;DHT22;28534;48.100;11.584;2024-02-21T02:55:35;21.90;55.50
42885;DHT22;28534;48.100;11.584;2024-02-21T02:56:36;21.90;55.40
42885;DHT22;28534;48.100;11.584;2024-02-21T02:57:38;21.90;55.50
42885;DHT22;28534;48.100;11.584;2024-02-21T02:58:38;21.90;55.40
42885;DHT22;28534;48.100;11.584;2024-02-21T02:59:40;21.90;55.40
42885;DHT22;28534;48.100;11.584;2024-02-21T03:00:41;22.00;55.60
42885;DHT22;28534;48.100;11.584;2024-02-21T03:01:42;21.90;55.50
42885;DHT22;28534;48.100;11.584;2024-02-21T03:02:43;21.90;55.60
42885;DHT22;28534;48.100;11.584;2024-02-21T03:03:46;21.90;55.50
42885;DHT22;28534;48.100;11.584;2024-02-21T03:04:47;22.00;55.60
42885;DHT22;28534;48.100;11.584;2024-02-21T03:05:49;21.90;55.60
42885;DHT22;28534;48.100;11.584;2024-02-21T03:06:49;21.90;55.60
42885;DHT22;28534;48.100;11.584;2024-02-21T03:07:51;21.90;55.60
42885;DHT22;28534;48.100;11.584;2024-02-21T03:08:51;21.90;55.60
42885;DHT22;28534;48.100;11.584;2024-02-21T03:09:56;21.90;55.50
42885;DHT22;28534;48.100;11.584;2024-02-21T03:10:57;21.90;55.60
42885;DHT22;28534;48.100;11.584;2024-02-21T03:11:59;22.00;55.60
42885;DHT22;28534;48.100;11.584;2024-02-21T03:13:03;21.90;55.60
42885;DHT22;28534;48.100;11.584;2024-02-21T03:14:05;21.90;55.60
42885;DHT22;28534;48.100;11.584;2024-02-21T03:15:06;21.90;55.60
42885;DHT22;28534;48.100;11.584;2024-02-21T03:16:07;21.90;55.60
42885;DHT22;28534;48.100;11.584;2024-02-21T03:17:08;21.90;55.60
42885;DHT22;28534;48.100;11.584;2024-02-21T03:18:09;21.90;55.60
42885;DHT22;28534;48.100;11.584;2024-02-21T03:19:10;21.90;56.20
42885;DHT22;28534;48.100;11.584;2024-02-21T03:20:11;21.90;55.60
42885;DHT22;28534;48.100;11.584;2024-02-21T03:21:13;21.90;55.70
42885;DHT22;28534;48.100;11.584;2024-02-21T03:22:14;21.90;55.60
42885;DHT22;28534;48.100;11.584;2024-02-21T03:23:16;21.90;55.60
42885;DHT22;28534;48.100;11.584;2024-02-21T03:24:16;21.90;55.60
42885;DHT22;28534;48.100;11.584;2024-02-21T03:25:19;21.90;55.60
42885;DHT22;28534;48.100;11.584;2024-02-21T03:26:20;21.90;55.60
42885;DHT22;28534;48.100;11.584;2024-02-21T03:27:21;21.90;55.60
42885;DHT22;28534;48.100;11.584;2024-02-21T03:28:22;21.90;55.70
42885;DHT22;28534;48.100;11.584;2024-02-21T03:29:24;21.90;55.70
42885;DHT22;28534;48.100;11.584;2024-02-21T03:30:25;21.90;55.70
42885;DHT22;28534;48.100;11.584;2024-02-21T03:31:27;21.90;55.70
42885;DHT22;28534;48.100;11.584;2024-02-21T03:32:27;21.90;55.70
42885;DHT22;28534;48.100;11.584;2024-02-21T03:33:29;22.00;55.80
42885;DHT22;28534;48.100;11.584;2024-02-21T03:34:30;21.90;55.70
42885;DHT22;28534;48.100;11.584;2024-02-21T03:35:31;21.90;55.70
42885;DHT22;28534;48.100;11.584;2024-02-21T03:36:32;21.90;55.70
42885;DHT22;28534;48.100;11.584;2024-02-21T03:37:34;22.00;55.80
42885;DHT22;28534;48.100;11.584;2024-02-21T03:38:34;21.90;55.70
42885;DHT22;28534;48.100;11.584;2024-02-21T03:39:36;21.90;55.70
42885;DHT22;28534;48.100;11.584;2024-02-21T03:40:39;21.90;55.70
42885;DHT22;28534;48.100;11.584;2024-02-21T03:41:40;21.90;55.70
42885;DHT22;28534;48.100;11.584;2024-02-21T03:42:41;21.90;55.70
42885;DHT22;28534;48.100;11.584;2024-02-21T03:43:42;21.90;55.70
42885;DHT22;28534;48.100;11.584;2024-02-21T03:44:43;22.00;55.80
42885;DHT22;28534;48.100;11.584;2024-02-21T03:45:45;21.90;55.70
42885;DHT22;28534;48.100;11.584;2024-02-21T03:46:45;21.90;55.70
42885;DHT22;28534;48.100;11.584;2024-02-21T03:47:47;21.90;55.70
42885;DHT22;28534;48.100;11.584;2024-02-21T03:48:47;21.90;55.70
42885;DHT22;28534;48.100;11.584;2024-02-21T03:49:49;22.00;55.80
42885;DHT22;28534;48.100;11.584;2024-02-21T03:50:51;21.90;55.70
42885;DHT22;28534;48.100;11.584;2024-02-21T03:51:53;21.90;55.70
42885;DHT22;28534;48.100;11.584;2024-02-21T03:52:53;21.90;55.70
42885;DHT22;28534;48.100;11.584;2024-02-21T03:53:55;21.90;55.70
42885;DHT22;28534;48.100;11.584;2024-02-21T03:54:56;21.90;55.70
42885;DHT22;28534;48.100;11.584;2024-02-21T03:56:00;21.90;55.70
42885;DHT22;28534;48.100;11.584;2024-02-21T03:57:04;21.90;55.70
42885;DHT22;28534;48.100;11.584;2024-02-21T03:58:05;21.90;55.70
42885;DHT22;28534;48.100;11.584;2024-02-21T03:59:06;21.90;55.70
42885;DHT22;28534;48.100;11.584;2024-02-21T04:00:08;21.90;55.70
42885;DHT22;28534;48.100;11.584;2024-02-21T04:01:14;21.90;55.80
42885;DHT22;28534;48.100;11.584;2024-02-21T04:02:15;22.00;55.80
42885;DHT22;28534;48.100;11.584;2024-02-21T04:03:17;21.90;55.80
42885;DHT22;28534;48.100;11.584;2024-02-21T04:04:18;21.90;55.70
42885;DHT22;28534;48.100;11.584;2024-02-21T04:05:20;21.90;55.80
42885;DHT22;28534;48.100;11.584;2024-02-21T04:06:20;21.90;55.80
42885;DHT22;28534;48.100;11.584;2024-02-21T04:07:22;21.90;55.80
42885;DHT22;28534;48.100;11.584;2024-02-21T04:08:22;21.90;55.80
42885;DHT22;28534;48.100;11.584;2024-02-21T04:09:24;21.90;56.40
42885;DHT22;28534;48.100;11.584;2024-02-21T04:10:25;21.90;55.70
42885;DHT22;28534;48.100;11.584;2024-02-21T04:11:28;21.80;55.70
42885;DHT22;28534;48.100;11.584;2024-02-21T04:12:28;21.90;55.80
42885;DHT22;28534;48.100;11.584;2024-02-21T04:13:30;22.00;55.80
42885;DHT22;28534;48.100;11.584;2024-02-21T04:14:30;21.90;55.70
42885;DHT22;28534;48.100;11.584;2024-02-21T04:15:32;22.00;55.60
42885;DHT22;28534;48.100;11.584;2024-02-21T04:16:33;22.10;55.60
42885;DHT22;28534;48.100;11.584;2024-02-21T04:17:34;22.10;55.40
42885;DHT22;28534;48.100;11.584;2024-02-21T04:18:35;22.10;55.30
42885;DHT22;28534;48.100;11.584;2024-02-21T04:19:36;22.10;55.20
42885;DHT22;28534;48.100;11.584;2024-02-21T04:20:38;22.20;55.20
42885;DHT22;28534;48.100;11.584;2024-02-21T04:21:39;22.20;55.20
42885;DHT22;28534;48.100;11.584;2024-02-21T04:22:41;22.20;55.10
42885;DHT22;28534;48.100;11.584;2024-02-21T04:23:41;22.20;55.00
42885;DHT22;28534;48.100;11.584;2024-02-21T04:24:43;22.40;55.10
42885;DHT22;28534;48.100;11.584;2024-02-21T04:25:43;22.30;55.00
42885;DHT22;28534;48.100;11.584;2024-02-21T04:26:46;22.30;54.90
42885;DHT22;28534;48.100;11.584;2024-02-21T04:27:47;22.30;54.90
42885;DHT22;28534;48.100;11.584;2024-02-21T04:28:48;22.30;54.80
42885;DHT22;28534;48.100;11.584;2024-02-21T04:29:49;22.40;54.80
42885;DHT22;28534;48.100;11.584;2024-02-21T04:30:51;22.40;54.70
42885;DHT22;28534;48.100;11.584;2024-02-21T04:31:51;22.40;54.70
42885;DHT22;28534;48.100;11.584;2024-02-21T04:32:53;22.50;54.80
42885;DHT22;28534;48.100;11.584;2024-02-21T04:33:53;22.40;54.60
42885;DHT22;28534;48.100;11.584;2024-02-21T04:34:55;22.50;54.70
42885;DHT22;28534;48.100;11.584;2024-02-21T04:35:56;22.50;54.70
42885;DHT22;28534;48.100;11.584;2024-02-21T04:36:59;22.40;54.50
42885;DHT22;28534;48.100;11.584;2024-02-21T04:38:00;22.50;54.60
42885;DHT22;28534;48.100;11.584;2024-02-21T04:39:01;22.50;54.50
42885;DHT22;28534;48.100;11.584;2024-02-21T04:40:03;22.60;54.50
42885;DHT22;28534;48.100;11.584;2024-02-21T04:41:03;22.50;54.50
42885;DHT22;28534;48.100;11.584;2024-02-21T04:42:06;22.50;54.40
42885;DHT22;28534;48.100;11.584;2024-02-21T04:43:07;22.60;54.30
42885;DHT22;28534;48.100;11.584;2024-02-21T04:44:08;22.60;54.30
42885;DHT22;28534;48.100;11.584;2024-02-21T04:45:09;22.60;54.20
42885;DHT22;28534;48.100;11.584;2024-02-21T04:46:11;22.60;54.20
42885;DHT22;28534;48.100;11.584;2024-02-21T04:47:12;22.70;54.20
42885;DHT22;28534;48.100;11.584;2024-02-21T04:48:13;22.70;54.10
42885;DHT22;28534;48.100;11.584;2024-02-21T04:49:14;22.70;54.00
42885;DHT22;28534;48.100;11.584;2024-02-21T04:50:15;22.80;53.90
42885;DHT22;28534;48.100;11.584;2024-02-21T04:51:16;22.80;53.90
42885;DHT22;28534;48.100;11.584;2024-02-21T04:52:18;22.90;53.90
42885;DHT22;28534;48.100;11.584;2024-02-21T04:53:19;22.90;53.80
42885;DHT22;28534;48.100;11.584;2024-02-21T04:54:20;22.90;53.60
42885;DHT22;28534;48.100;11.584;2024-02-21T04:55:21;22.90;53.50
42885;DHT22;28534;48.100;11.584;2024-02-21T04:56:22;23.00;53.50
42885;DHT22;28534;48.100;11.584;2024-02-21T04:57:24;23.10;53.40
42885;DHT22;28534;48.100;11.584;2024-02-21T04:58:26;23.10;53.30
42885;DHT22;28534;48.100;11.584;2024-02-21T04:59:26;23.20;53.20
42885;DHT22;28534;48.100;11.584;2024-02-21T05:00:28;23.10;53.10
42885;DHT22;28534;48.100;11.584;2024-02-21T05:01:29;23.20;53.20
42885;DHT22;28534;48.100;11.584;2024-02-21T05:02:30;23.10;53.10
42885;DHT22;28534;48.100;11.584;2024-02-21T05:03:31;23.20;53.10
42885;DHT22;28534;48.100;11.584;2024-02-21T05:04:32;23.20;53.10
42885;DHT22;28534;48.100;11.584;2024-02-21T05:05:33;23.20;52.90
42885;DHT22;28534;48.100;11.584;2024-02-21T05:06:36;23.30;52.90
42885;DHT22;28534;48.100;11.584;2024-02-21T05:07:37;23.30;52.90
42885;DHT22;28534;48.100;11.584;2024-02-21T05:08:38;23.30;52.80
42885;DHT22;28534;48.100;11.584;2024-02-21T05:09:39;23.30;52.80
42885;DHT22;28534;48.100;11.584;2024-02-21T05:10:40;23.40;52.80
42885;DHT22;28534;48.100;11.584;2024-02-21T05:11:41;23.40;52.80
42885;DHT22;28534;48.100;11.584;2024-02-21T05:12:43;23.50;52.80
42885;DHT22;28534;48.100;11.584;2024-02-21T05:13:44;23.40;52.70
42885;DHT22;28534;48.100;11.584;2024-02-21T05:14:46;23.40;52.60
42885;DHT22;28534;48.100;11.584;2024-02-21T05:15:47;23.40;52.60
42885;DHT22;28534;48.100;11.584;2024-02-21T05:16:49;23.50;52.60
42885;DHT22;28534;48.100;11.584;2024-02-21T05:17:49;23.50;52.50
42885;DHT22;28534;48.100;11.584;2024-02-21T05:18:51;23.50;52.50
42885;DHT22;28534;48.100;11.584;2024-02-21T05:19:51;23.50;52.50
42885;DHT22;28534;48.100;11.584;2024-02-21T05:20:53;23.50;53.00
42885;DHT22;28534;48.100;11.584;2024-02-21T05:21:54;23.70;52.40
42885;DHT22;28534;48.100;11.584;2024-02-21T05:22:55;23.60;52.30
42885;DHT22;28534;48.100;11.584;2024-02-21T05:23:56;23.60;52.20
42885;DHT22;28534;48.100;11.584;2024-02-21T05:24:57;23.70;52.20
42885;DHT22;28534;48.100;11.584;2024-02-21T05:25:58;23.70;52.10
42885;DHT22;28534;48.100;11.584;2024-02-21T05:27:00;23.70;52.10
42885;DHT22;28534;48.100;11.584;2024-02-21T05:28:02;23.70;52.10
42885;DHT22;28534;48.100;11.584;2024-02-21T05:29:03;23.70;52.10
42885;DHT22;28534;48.100;11.584;2024-02-21T05:30:04;23.70;52.70
42885;DHT22;28534;48.100;11.584;2024-02-21T05:31:06;23.60;52.10
42885;DHT22;28534;48.100;11.584;2024-02-21T05:32:07;23.60;52.30
42885;DHT22;28534;48.100;11.584;2024-02-21T05:33:08;23.60;52.20
42885;DHT22;28534;48.100;11.584;2024-02-21T05:34:09;23.10;52.00
42885;DHT22;28534;48.100;11.584;2024-02-21T05:35:11;23.60;52.30
42885;DHT22;28534;48.100;11.584;2024-02-21T05:36:13;23.60;52.20
42885;DHT22;28534;48.100;11.584;2024-02-21T05:37:14;23.60;52.20
42885;DHT22;28534;48.100;11.584;2024-02-21T05:38:15;23.60;52.30
42885;DHT22;28534;48.100;11.584;2024-02-21T05:39:16;23.70;52.40
42885;DHT22;28534;48.100;11.584;2024-02-21T05:40:18;23.70;52.30
42885;DHT22;28534;48.100;11.584;2024-02-21T05:41:19;23.70;52.30
42885;DHT22;28534;48.100;11.584;2024-02-21T05:42:20;23.70;52.30
42885;DHT22;28534;48.100;11.584;2024-02-21T05:43:22;23.70;52.30
42885;DHT22;28534;48.100;11.584;2024-02-21T05:44:24;23.70;52.20
42885;DHT22;28534;48.100;11.584;2024-02-21T05:45:26;23.70;52.20
42885;DHT22;28534;48.100;11.584;2024-02-21T05:46:27;23.70;52.20
42885;DHT22;28534;48.100;11.584;2024-02-21T05:47:28;23.70;52.30
42885;DHT22;28534;48.100;11.584;2024-02-21T05:48:30;23.70;52.30
42885;DHT22;28534;48.100;11.584;2024-02-21T05:49:30;23.70;52.20
42885;DHT22;28534;48.100;11.584;2024-02-21T05:50:32;23.70;52.20
42885;DHT22;28534;48.100;11.584;2024-02-21T05:51:33;23.70;52.20
42885;DHT22;28534;48.100;11.584;2024-02-21T05:52:35;23.70;52.20
42885;DHT22;28534;48.100;11.584;2024-02-21T05:53:35;23.80;52.20
42885;DHT22;28534;48.100;11.584;2024-02-21T05:54:40;23.70;52.30
42885;DHT22;28534;48.100;11.584;2024-02-21T05:55:41;23.80;52.50
42885;DHT22;28534;48.100;11.584;2024-02-21T05:56:44;23.80;52.60
42885;DHT22;28534;48.100;11.584;2024-02-21T05:57:44;23.70;52.40
42885;DHT22;28534;48.100;11.584;2024-02-21T05:58:46;23.80;52.30
42885;DHT22;28534;48.100;11.584;2024-02-21T05:59:48;23.80;52.30
42885;DHT22;28534;48.100;11.584;2024-02-21T06:00:49;23.80;52.20
42885;DHT22;28534;48.100;11.584;2024-02-21T06:01:54;23.80;52.20
42885;DHT22;28534;48.100;11.584;2024-02-21T06:02:56;23.80;52.20
42885;DHT22;28534;48.100;11.584;2024-02-21T06:03:58;23.80;52.30
42885;DHT22;28534;48.100;11.584;2024-02-21T06:04:58;23.90;52.40
42885;DHT22;28534;48.100;11.584;2024-02-21T06:06:00;23.80;52.30
42885;DHT22;28534;48.100;11.584;2024-02-21T06:07:01;23.80;52.40
42885;DHT22;28534;48.100;11.584;2024-02-21T06:08:03;23.80;52.50
42885;DHT22;28534;48.100;11.584;2024-02-21T06:09:03;23.80;52.30
42885;DHT22;28534;48.100;11.584;2024-02-21T06:10:06;23.90;52.10
42885;DHT22;28534;48.100;11.584;2024-02-21T06:11:07;23.70;51.70
42885;DHT22;28534;48.100;11.584;2024-02-21T06:12:08;23.70;51.70
42885;DHT22;28534;48.100;11.584;2024-02-21T06:13:09;23.70;51.20
42885;DHT22;28534;48.100;11.584;2024-02-21T06:14:12;23.70;49.90
42885;DHT22;28534;48.100;11.584;2024-02-21T06:15:12;23.70;49.00
42885;DHT22;28534;48.100;11.584;2024-02-21T06:16:14;23.70;48.30
42885;DHT22;28534;48.100;11.584;2024-02-21T06:17:15;23.60;48.00
42885;DHT22;28534;48.100;11.584;2024-02-21T06:18:15;23.60;48.70
42885;DHT22;28534;48.100;11.584;2024-02-21T06:19:17;23.70;48.70
42885;DHT22;28534;48.100;11.584;2024-02-21T06:20:17;23.70;48.80
42885;DHT22;28534;48.100;11.584;2024-02-21T06:21:19;23.70;48.70